createdAt,value
2023-05-13T00:00:20.010Z,27.92
2023-05-13T00:02:47.030Z,30.33
2023-05-13T00:05:13.959Z,29.40
2023-05-13T00:07:41.849Z,29.80
2023-05-13T00:10:09.306Z,29.75
2023-05-13T00:12:37.288Z,28.88
2023-05-13T00:15:06.711Z,29.93
2023-05-13T00:17:38.358Z,31.63
2023-05-13T00:20:06.749Z,29.63
2023-05-13T00:22:36.662Z,29.63
2023-05-13T00:25:04.204Z,29.70
2023-05-13T00:27:41.851Z,32.10
2023-05-13T00:30:12.137Z,31.83
2023-05-13T00:32:39.114Z,31.17
2023-05-13T00:35:06.410Z,32.33
2023-05-13T00:37:34.333Z,32.13
2023-05-13T00:40:02.365Z,30.75
2023-05-13T00:42:29.214Z,30.20
2023-05-13T00:44:58.967Z,31.77
2023-05-13T00:47:27.733Z,32.95
2023-05-13T00:50:03.523Z,31.55
2023-05-13T00:52:31.800Z,33.47
2023-05-13T00:54:58.958Z,31.13
2023-05-13T00:57:27.843Z,32.00
2023-05-13T00:59:55.986Z,32.13
2023-05-13T01:02:26.941Z,34.70
2023-05-13T01:04:57.855Z,32.60
2023-05-13T01:08:29.240Z,32.03
2023-05-13T01:11:03.327Z,32.58
2023-05-13T01:13:39.789Z,33.10
2023-05-13T01:16:33.481Z,32.58
2023-05-13T01:19:12.331Z,34.35
2023-05-13T01:21:40.654Z,34.97
2023-05-13T01:24:29.125Z,32.40
2023-05-13T01:26:57.053Z,34.10
2023-05-13T01:29:29.194Z,31.98
2023-05-13T01:31:56.279Z,33.92
2023-05-13T01:34:24.745Z,33.40
2023-05-13T01:36:56.422Z,33.20
2023-05-13T01:39:26.911Z,34.30
2023-05-13T01:42:02.918Z,35.03
2023-05-13T01:44:31.435Z,34.58
2023-05-13T01:47:03.464Z,34.13
2023-05-13T01:49:35.404Z,32.13
2023-05-13T01:52:05.714Z,32.30
2023-05-13T01:57:18.368Z,32.90
2023-05-13T01:59:45.390Z,33.90
2023-05-13T02:02:14.561Z,33.80
2023-05-13T02:04:43.487Z,33.70
2023-05-13T02:07:41.037Z,33.73
2023-05-13T02:10:13.171Z,33.65
2023-05-13T02:12:41.349Z,31.33
2023-05-13T02:15:15.038Z,32.53
2023-05-13T02:17:43.318Z,33.47
2023-05-13T02:20:10.763Z,32.93
2023-05-13T02:22:38.713Z,29.77
2023-05-13T02:25:10.255Z,33.03
2023-05-13T02:27:45.632Z,34.23
2023-05-13T02:30:13.109Z,33.37
2023-05-13T02:32:42.818Z,32.75
2023-05-13T02:35:11.626Z,34.47
2023-05-13T02:37:41.730Z,33.37
2023-05-13T02:40:10.302Z,32.72
2023-05-13T02:42:37.281Z,34.75
2023-05-13T02:45:05.478Z,34.13
2023-05-13T02:47:34.406Z,33.23
2023-05-13T02:50:10.194Z,33.25
2023-05-13T02:52:39.382Z,34.43
2023-05-13T02:55:09.807Z,31.80
2023-05-13T02:57:40.273Z,35.30
2023-05-13T03:00:10.400Z,33.57
2023-05-13T03:02:41.341Z,34.10
2023-05-13T03:05:08.697Z,32.53
2023-05-13T03:07:35.696Z,32.53
2023-05-13T03:10:05.003Z,33.25
2023-05-13T03:12:32.937Z,32.25
2023-05-13T03:15:01.847Z,30.08
2023-05-13T03:17:32.045Z,30.00
2023-05-13T03:19:58.911Z,30.63
2023-05-13T03:22:31.778Z,30.90
2023-05-13T03:24:59.714Z,29.75
2023-05-13T03:27:40.342Z,29.77
2023-05-13T03:30:08.672Z,30.27
2023-05-13T03:32:36.625Z,29.07
2023-05-13T03:35:05.938Z,29.38
2023-05-13T03:37:38.779Z,28.27
2023-05-13T03:40:10.083Z,28.33
2023-05-13T03:42:38.091Z,27.80
2023-05-13T03:45:16.170Z,27.65
2023-05-13T03:48:07.247Z,27.53
2023-05-13T03:50:35.162Z,26.20
2023-05-13T03:53:02.327Z,28.37
2023-05-13T03:55:29.197Z,25.93
2023-05-13T03:58:01.165Z,27.85
2023-05-13T04:00:46.888Z,26.73
2023-05-13T04:03:14.500Z,27.13
2023-05-13T04:05:41.444Z,25.90
2023-05-13T04:08:08.402Z,25.48
2023-05-13T04:10:35.502Z,25.33
2023-05-13T04:13:10.695Z,26.80
2023-05-13T04:15:37.572Z,26.00
2023-05-13T04:18:07.759Z,25.48
2023-05-13T04:20:34.931Z,24.33
2023-05-13T04:23:11.376Z,25.15
2023-05-13T04:25:54.627Z,25.23
2023-05-13T04:28:21.674Z,24.90
2023-05-13T04:30:49.654Z,25.85
2023-05-13T04:33:18.817Z,25.42
2023-05-13T04:35:50.693Z,26.58
2023-05-13T04:38:17.588Z,24.48
2023-05-13T04:40:45.120Z,23.90
2023-05-13T04:43:17.816Z,25.25
2023-05-13T04:45:47.669Z,23.75
2023-05-13T04:48:16.352Z,22.27
2023-05-13T04:50:47.556Z,22.90
2023-05-13T04:53:15.098Z,23.25
2023-05-13T04:55:42.343Z,21.80
2023-05-13T04:58:17.742Z,23.60
2023-05-13T05:00:46.641Z,21.88
2023-05-13T05:03:15.160Z,23.33
2023-05-13T05:05:43.421Z,21.80
2023-05-13T05:08:11.313Z,22.25
2023-05-13T05:10:38.156Z,21.30
2023-05-13T05:13:05.518Z,21.40
2023-05-13T05:15:38.399Z,19.90
2023-05-13T05:18:06.653Z,19.58
2023-05-13T05:20:35.682Z,18.95
2023-05-13T05:23:02.630Z,20.05
2023-05-13T05:25:29.831Z,19.70
2023-05-13T05:27:59.194Z,19.67
2023-05-13T05:30:26.373Z,20.83
2023-05-13T05:32:55.385Z,18.97
2023-05-13T05:35:33.539Z,18.80
2023-05-13T05:38:12.285Z,18.45
2023-05-13T05:40:41.289Z,17.50
2023-05-13T05:43:09.286Z,17.70
2023-05-13T05:45:36.339Z,17.70
2023-05-13T05:48:09.189Z,18.05
2023-05-13T05:50:36.611Z,19.15
2023-05-13T05:53:03.745Z,18.13
2023-05-13T05:55:34.843Z,18.20
2023-05-13T05:58:13.403Z,16.73
2023-05-13T06:00:40.350Z,16.63
2023-05-13T06:03:13.606Z,18.63
2023-05-13T06:05:40.647Z,17.95
2023-05-13T06:08:08.531Z,17.25
2023-05-13T06:10:35.370Z,17.83
2023-05-13T06:13:05.445Z,16.58
2023-05-13T06:15:38.359Z,17.65
2023-05-13T06:18:06.365Z,18.40
2023-05-13T06:20:41.978Z,15.70
2023-05-13T06:23:17.653Z,15.25
2023-05-13T06:25:47.736Z,15.35
2023-05-13T06:28:21.059Z,15.25
2023-05-13T06:30:48.032Z,14.85
2023-05-13T06:33:25.575Z,14.13
2023-05-13T06:38:44.008Z,13.90
2023-05-13T06:41:15.617Z,15.75
2023-05-13T06:43:46.162Z,16.13
2023-05-13T06:46:15.232Z,15.68
2023-05-13T06:48:42.367Z,15.48
2023-05-13T06:51:10.624Z,16.27
2023-05-13T06:53:37.575Z,19.70
2023-05-13T06:56:06.044Z,18.48
2023-05-13T06:58:34.310Z,18.92
2023-05-13T07:01:01.850Z,16.52
2023-05-13T07:03:28.858Z,18.83
2023-05-13T07:05:55.786Z,18.10
2023-05-13T07:08:23.737Z,18.58
2023-05-13T07:10:50.659Z,18.98
2023-05-13T07:13:19.822Z,18.30
2023-05-13T07:15:51.035Z,17.08
2023-05-13T07:18:20.205Z,16.45
2023-05-13T07:20:54.842Z,16.52
2023-05-13T07:23:23.716Z,17.60
2023-05-13T07:26:02.128Z,18.52
2023-05-13T07:28:55.183Z,16.00
2023-05-13T07:34:17.636Z,15.73
2023-05-13T07:36:46.643Z,18.23
2023-05-13T07:39:17.820Z,20.20
2023-05-13T07:41:46.701Z,17.48
2023-05-13T07:44:15.779Z,20.27
2023-05-13T07:46:44.829Z,19.60
2023-05-13T07:49:12.296Z,17.67
2023-05-13T07:51:46.129Z,18.10
2023-05-13T07:54:14.619Z,19.20
2023-05-13T07:56:44.326Z,19.83
2023-05-13T07:59:12.485Z,20.58
2023-05-13T08:01:54.443Z,20.25
2023-05-13T08:04:27.311Z,21.63
2023-05-13T08:07:00.431Z,19.45
2023-05-13T08:09:35.857Z,19.23
2023-05-13T08:12:05.380Z,18.15
2023-05-13T08:14:32.278Z,19.27
2023-05-13T08:17:01.146Z,19.05
2023-05-13T08:19:28.109Z,19.90
2023-05-13T08:22:03.780Z,19.60
2023-05-13T08:24:34.716Z,20.73
2023-05-13T08:27:06.191Z,20.45
2023-05-13T08:29:33.347Z,21.08
2023-05-13T08:32:06.838Z,20.35
2023-05-13T08:34:36.648Z,20.27
2023-05-13T08:37:05.033Z,19.67
2023-05-13T08:39:33.483Z,22.52
2023-05-13T08:42:07.428Z,20.13
2023-05-13T08:44:44.585Z,19.75
2023-05-13T08:47:26.371Z,21.42
2023-05-13T08:49:53.321Z,19.60
2023-05-13T08:52:22.967Z,20.58
2023-05-13T08:54:51.367Z,22.45
2023-05-13T08:57:18.412Z,24.42
2023-05-13T08:59:46.288Z,20.60
2023-05-13T09:02:18.984Z,20.70
2023-05-13T09:04:47.637Z,20.50
2023-05-13T09:07:16.415Z,20.15
2023-05-13T09:09:44.396Z,19.85
2023-05-13T09:12:12.595Z,18.73
2023-05-13T09:14:40.861Z,19.35
2023-05-13T09:17:15.002Z,20.45
2023-05-13T09:19:43.619Z,20.02
2023-05-13T09:22:19.292Z,18.40
2023-05-13T09:24:58.594Z,19.65
2023-05-13T09:27:40.117Z,18.65
2023-05-13T09:30:09.105Z,20.67
2023-05-13T09:32:36.929Z,20.08
2023-05-13T09:35:21.693Z,18.00
2023-05-13T09:37:49.651Z,19.02
2023-05-13T09:40:17.710Z,17.42
2023-05-13T09:42:45.532Z,17.63
2023-05-13T09:45:15.701Z,19.23
2023-05-13T09:47:43.456Z,18.38
2023-05-13T09:50:12.434Z,17.98
2023-05-13T09:52:41.238Z,18.15
2023-05-13T09:55:12.197Z,17.05
2023-05-13T09:57:42.628Z,17.70
2023-05-13T10:00:21.015Z,18.45
2023-05-13T10:02:57.732Z,18.08
2023-05-13T10:05:27.059Z,20.10
2023-05-13T10:07:55.079Z,18.40
2023-05-13T10:10:24.310Z,16.98
2023-05-13T10:12:51.534Z,16.17
2023-05-13T10:15:23.577Z,16.40
2023-05-13T10:17:50.605Z,16.35
2023-05-13T10:20:22.717Z,15.55
2023-05-13T10:22:50.246Z,16.45
2023-05-13T10:25:18.360Z,16.85
2023-05-13T10:27:45.616Z,17.20
2023-05-13T10:30:15.825Z,18.02
2023-05-13T10:32:44.268Z,16.65
2023-05-13T10:35:16.879Z,17.35
2023-05-13T10:38:06.802Z,15.90
2023-05-13T10:40:43.745Z,15.90
2023-05-13T10:43:32.380Z,16.42
2023-05-13T10:46:01.307Z,18.45
2023-05-13T10:48:48.436Z,17.48
2023-05-13T10:51:18.564Z,17.98
2023-05-13T10:53:55.785Z,18.20
2023-05-13T10:56:24.340Z,17.63
2023-05-13T10:59:03.214Z,16.73
2023-05-13T11:01:48.241Z,18.73
2023-05-13T11:04:18.538Z,18.02
2023-05-13T11:06:49.803Z,19.08
2023-05-13T11:09:44.393Z,17.48
2023-05-13T11:12:18.538Z,16.80
2023-05-13T11:14:45.567Z,17.13
2023-05-13T11:17:12.872Z,15.35
2023-05-13T11:19:51.198Z,15.10
2023-05-13T11:22:24.007Z,15.98
2023-05-13T11:25:09.389Z,15.57
2023-05-13T11:27:42.916Z,16.25
2023-05-13T11:30:24.266Z,15.32
2023-05-13T11:32:59.848Z,15.38
2023-05-13T11:35:34.431Z,18.00
2023-05-13T11:38:02.859Z,17.50
2023-05-13T11:40:37.370Z,15.98
2023-05-13T11:43:05.304Z,16.48
2023-05-13T11:45:32.723Z,14.48
2023-05-13T11:48:30.048Z,15.18
2023-05-13T11:51:09.722Z,15.00
2023-05-13T11:53:38.677Z,16.02
2023-05-13T11:56:13.274Z,16.05
2023-05-13T11:58:42.135Z,16.83
2023-05-13T12:01:16.384Z,16.35
2023-05-13T12:03:49.370Z,16.63
2023-05-13T12:06:19.606Z,14.90
2023-05-13T12:08:49.595Z,16.23
2023-05-13T12:11:21.657Z,17.52
2023-05-13T12:13:52.710Z,16.30
2023-05-13T12:16:41.235Z,16.63
2023-05-13T12:19:12.620Z,16.70
2023-05-13T12:21:40.381Z,16.02
2023-05-13T12:27:08.789Z,17.08
2023-05-13T12:29:44.394Z,15.25
2023-05-13T12:32:15.346Z,16.40
2023-05-13T12:34:53.792Z,14.45
2023-05-13T12:37:21.706Z,14.73
2023-05-13T12:39:48.610Z,16.52
2023-05-13T12:42:16.378Z,17.08
2023-05-13T12:44:50.839Z,15.80
2023-05-13T12:47:23.354Z,15.60
2023-05-13T12:50:02.196Z,15.57
2023-05-13T12:52:44.214Z,14.20
2023-05-13T12:55:19.780Z,14.68
2023-05-13T12:58:05.332Z,14.55
2023-05-13T13:00:32.377Z,15.55
2023-05-13T13:03:00.589Z,15.02
2023-05-13T13:05:30.624Z,15.02
2023-05-13T13:07:58.601Z,15.15
2023-05-13T13:10:26.828Z,13.35
2023-05-13T13:12:54.863Z,13.85
2023-05-13T13:15:26.818Z,13.82
2023-05-13T13:18:04.942Z,14.77
2023-05-13T13:20:36.179Z,13.88
2023-05-13T13:23:03.463Z,14.10
2023-05-13T13:25:35.177Z,14.07
2023-05-13T13:28:06.476Z,13.18
2023-05-13T13:30:36.300Z,14.68
2023-05-13T13:33:19.761Z,14.57
2023-05-13T13:35:47.363Z,15.18
2023-05-13T13:38:25.782Z,14.38
2023-05-13T13:40:55.078Z,14.68
2023-05-13T13:43:24.938Z,15.23
2023-05-13T13:45:53.142Z,16.90
2023-05-13T13:48:23.066Z,17.05
2023-05-13T13:50:53.041Z,15.90
2023-05-13T13:53:23.130Z,16.25
2023-05-13T13:55:58.752Z,15.65
2023-05-13T13:58:32.487Z,15.15
2023-05-13T14:01:16.799Z,15.98
2023-05-13T14:03:45.238Z,13.82
2023-05-13T14:06:12.374Z,14.93
2023-05-13T14:08:56.768Z,14.02
2023-05-13T14:11:24.902Z,13.23
2023-05-13T14:13:55.524Z,15.52
2023-05-13T14:16:28.886Z,13.88
2023-05-13T14:19:10.088Z,15.52
2023-05-13T14:21:46.164Z,14.82
2023-05-13T14:24:20.551Z,15.13
2023-05-13T14:26:51.514Z,14.10
2023-05-13T14:29:21.991Z,16.77
2023-05-13T14:31:49.328Z,15.45
2023-05-13T14:34:16.655Z,17.08
2023-05-13T14:36:46.859Z,16.75
2023-05-13T14:39:15.916Z,16.52
2023-05-13T14:41:47.519Z,16.00
2023-05-13T14:44:15.583Z,16.20
2023-05-13T14:46:43.648Z,16.42
2023-05-13T14:49:14.138Z,16.98
2023-05-13T14:51:52.734Z,17.15
2023-05-13T14:54:19.634Z,15.15
2023-05-13T14:56:49.972Z,15.73
2023-05-13T14:59:20.102Z,15.52
2023-05-13T15:01:50.312Z,15.07
2023-05-13T15:04:19.211Z,14.13
2023-05-13T15:06:47.140Z,13.48
2023-05-13T15:09:24.671Z,14.40
2023-05-13T15:11:59.639Z,13.60
2023-05-13T15:14:29.152Z,15.02
2023-05-13T15:16:56.414Z,14.95
2023-05-13T15:19:25.714Z,14.60
2023-05-13T15:21:58.476Z,15.18
2023-05-13T15:24:26.390Z,15.48
2023-05-13T15:27:00.662Z,13.35
2023-05-13T15:29:27.993Z,14.60
2023-05-13T15:32:08.213Z,15.65
2023-05-13T15:34:45.818Z,13.77
2023-05-13T15:37:15.172Z,14.65
2023-05-13T15:39:44.423Z,16.13
2023-05-13T15:42:11.748Z,15.63
2023-05-13T15:44:40.676Z,14.55
2023-05-13T15:47:13.278Z,14.27
2023-05-13T15:49:40.558Z,14.50
2023-05-13T15:52:07.707Z,14.20
2023-05-13T15:54:35.016Z,15.20
2023-05-13T15:57:01.982Z,15.45
2023-05-13T15:59:29.987Z,14.73
2023-05-13T16:01:59.686Z,16.10
2023-05-13T16:04:27.439Z,17.60
2023-05-13T16:06:54.385Z,16.20
2023-05-13T16:09:21.582Z,16.63
2023-05-13T16:11:56.376Z,17.83
2023-05-13T16:14:24.330Z,15.93
2023-05-13T16:16:52.599Z,15.38
2023-05-13T16:19:23.396Z,14.38
2023-05-13T16:21:54.336Z,12.77
2023-05-13T16:24:24.453Z,15.65
2023-05-13T16:26:55.170Z,15.07
2023-05-13T16:29:22.090Z,14.65
2023-05-13T16:31:50.176Z,15.75
2023-05-13T16:34:20.318Z,15.85
2023-05-13T16:36:47.399Z,14.73
2023-05-13T16:39:15.578Z,16.17
2023-05-13T16:41:42.962Z,16.85
2023-05-13T16:44:11.169Z,15.25
2023-05-13T16:46:38.520Z,15.57
2023-05-13T16:49:06.538Z,17.25
2023-05-13T16:51:35.899Z,17.75
2023-05-13T16:54:06.179Z,14.95
2023-05-13T16:56:34.622Z,14.38
2023-05-13T16:59:05.444Z,16.00
2023-05-13T17:01:36.217Z,15.02
2023-05-13T17:04:11.618Z,15.30
2023-05-13T17:06:38.588Z,15.95
2023-05-13T17:09:07.908Z,15.45
2023-05-13T17:11:36.214Z,17.73
2023-05-13T17:14:05.292Z,17.65
2023-05-13T17:16:32.295Z,16.92
2023-05-13T17:19:00.100Z,15.23
2023-05-13T17:21:27.303Z,16.75
2023-05-13T17:24:08.603Z,17.95
2023-05-13T17:26:39.023Z,16.23
2023-05-13T17:29:06.979Z,17.25
2023-05-13T17:31:36.242Z,15.85
2023-05-13T17:34:04.331Z,16.30
2023-05-13T17:36:32.794Z,17.88
2023-05-13T17:39:00.843Z,17.67
2023-05-13T17:41:30.666Z,17.58
2023-05-13T17:44:08.289Z,16.47
2023-05-13T17:46:37.440Z,17.30
2023-05-13T17:49:15.889Z,18.25
2023-05-13T17:51:47.373Z,18.30
2023-05-13T17:54:16.504Z,16.33
2023-05-13T17:56:48.182Z,17.10
2023-05-13T17:59:16.602Z,17.60
2023-05-13T18:01:52.006Z,19.00
2023-05-13T18:04:22.336Z,17.80
2023-05-13T18:06:51.351Z,17.52
2023-05-13T18:09:18.217Z,18.10
2023-05-13T18:11:47.807Z,19.17
2023-05-13T18:14:16.191Z,17.53
2023-05-13T18:16:44.987Z,18.23
2023-05-13T18:19:14.280Z,16.98
2023-05-13T18:21:42.192Z,18.60
2023-05-13T18:24:09.347Z,17.77
2023-05-13T18:26:37.828Z,19.00
2023-05-13T18:29:06.157Z,19.10
2023-05-13T18:31:39.556Z,20.43
2023-05-13T18:34:11.855Z,21.10
2023-05-13T18:36:41.825Z,21.37
2023-05-13T18:39:10.001Z,20.85
2023-05-13T18:41:36.839Z,21.47
2023-05-13T18:44:05.785Z,20.47
2023-05-13T18:46:35.515Z,21.80
2023-05-13T18:49:05.092Z,22.30
2023-05-13T18:51:34.449Z,20.77
2023-05-13T18:54:01.370Z,20.37
2023-05-13T18:56:29.233Z,20.40
2023-05-13T18:58:56.319Z,20.33
2023-05-13T19:01:28.546Z,20.87
2023-05-13T19:03:57.287Z,19.20
2023-05-13T19:06:26.129Z,22.13
2023-05-13T19:08:54.065Z,23.10
2023-05-13T19:11:22.947Z,21.70
2023-05-13T19:13:49.874Z,21.73
2023-05-13T19:16:19.692Z,22.23
2023-05-13T19:18:49.017Z,21.63
2023-05-13T19:21:27.969Z,21.50
2023-05-13T19:23:55.283Z,22.00
2023-05-13T19:26:22.395Z,21.77
2023-05-13T19:28:49.745Z,21.33
2023-05-13T19:31:17.065Z,22.57
2023-05-13T19:33:46.114Z,22.20
2023-05-13T19:36:13.420Z,22.47
2023-05-13T19:38:41.375Z,22.60
2023-05-13T19:41:08.653Z,21.87
2023-05-13T19:43:38.199Z,22.10
2023-05-13T19:46:05.133Z,22.50
2023-05-13T19:48:32.009Z,22.47
2023-05-13T19:50:58.950Z,21.83
2023-05-13T19:53:26.223Z,21.57
2023-05-13T19:55:55.834Z,22.97
2023-05-13T19:58:22.798Z,21.77
2023-05-13T20:00:51.708Z,23.00
2023-05-13T20:03:18.692Z,21.87
2023-05-13T20:05:50.538Z,21.87
2023-05-13T20:08:18.557Z,21.97
2023-05-13T20:10:46.557Z,23.10
2023-05-13T20:13:13.451Z,22.03
2023-05-13T20:15:42.334Z,22.10
2023-05-13T20:18:11.309Z,22.20
2023-05-13T20:20:41.702Z,22.60
2023-05-13T20:23:08.729Z,22.57
2023-05-13T20:25:35.912Z,21.37
2023-05-13T20:28:02.789Z,22.40
2023-05-13T20:30:29.665Z,21.20
2023-05-13T20:32:56.728Z,22.73
2023-05-13T20:35:23.735Z,22.33
2023-05-13T20:37:50.740Z,23.40
2023-05-13T20:40:17.660Z,21.90
2023-05-13T20:42:44.585Z,25.07
2023-05-13T20:45:12.036Z,23.10
2023-05-13T20:47:38.942Z,23.43
2023-05-13T20:50:06.841Z,25.40
2023-05-13T20:52:33.756Z,26.17
2023-05-13T20:55:00.632Z,24.80
2023-05-13T20:57:27.579Z,24.67
2023-05-13T20:59:54.523Z,24.97
2023-05-13T21:02:21.500Z,25.43
2023-05-13T21:04:48.411Z,25.23
2023-05-13T21:07:15.360Z,24.90
2023-05-13T21:09:42.199Z,24.20
2023-05-13T21:12:09.196Z,24.87
2023-05-13T21:14:36.106Z,25.40
2023-05-13T21:17:03.551Z,26.03
2023-05-13T21:19:31.486Z,25.30
2023-05-13T21:22:00.031Z,25.03
2023-05-13T21:24:26.903Z,25.60
2023-05-13T21:26:53.886Z,26.37
2023-05-13T21:29:20.816Z,24.47
2023-05-13T21:31:48.073Z,26.13
2023-05-13T21:34:15.022Z,25.00
2023-05-13T21:36:42.095Z,25.20
2023-05-13T21:39:10.591Z,25.90
2023-05-13T21:41:37.830Z,25.27
2023-05-13T21:44:04.854Z,24.60
2023-05-13T21:46:31.901Z,26.90
2023-05-13T21:49:01.754Z,27.13
2023-05-13T21:51:28.798Z,27.17
2023-05-13T21:53:57.678Z,26.00
2023-05-13T21:56:24.578Z,27.40
2023-05-13T21:58:51.562Z,28.93
2023-05-13T22:01:18.516Z,29.80
2023-05-13T22:03:45.419Z,26.67
2023-05-13T22:06:12.390Z,26.90
2023-05-13T22:08:39.269Z,27.83
2023-05-13T22:11:07.422Z,29.93
2023-05-13T22:13:34.375Z,27.37
2023-05-13T22:16:01.288Z,29.93
2023-05-13T22:18:28.443Z,26.27
2023-05-13T22:20:55.839Z,29.00
2023-05-13T22:23:22.714Z,27.63
2023-05-13T22:25:49.608Z,27.57
2023-05-13T22:28:16.643Z,28.87
2023-05-13T22:30:44.855Z,28.00
2023-05-13T22:33:11.795Z,27.43
2023-05-13T22:35:39.591Z,27.47
2023-05-13T22:38:06.511Z,29.13
2023-05-13T22:40:33.356Z,27.60
2023-05-13T22:43:00.659Z,29.00
2023-05-13T22:45:27.523Z,27.17
2023-05-13T22:47:55.961Z,26.90
2023-05-13T22:50:23.325Z,27.67
2023-05-13T22:52:51.373Z,28.87
2023-05-13T22:55:18.256Z,27.03
2023-05-13T22:57:45.150Z,27.07
2023-05-13T23:00:12.645Z,26.27
2023-05-13T23:02:39.537Z,28.60
2023-05-13T23:05:07.410Z,28.57
2023-05-13T23:07:34.266Z,27.90
2023-05-13T23:10:01.212Z,26.20
2023-05-13T23:12:30.041Z,28.40
2023-05-13T23:14:58.088Z,28.37
2023-05-13T23:17:25.039Z,26.47
2023-05-13T23:19:54.960Z,27.67
2023-05-13T23:22:21.807Z,26.27
2023-05-13T23:24:48.672Z,26.57
2023-05-13T23:27:15.526Z,27.47
2023-05-13T23:29:42.367Z,27.33
2023-05-13T23:32:09.397Z,28.73
2023-05-13T23:34:36.291Z,26.97
2023-05-13T23:37:03.174Z,28.17
2023-05-13T23:39:30.054Z,28.10
2023-05-13T23:41:57.031Z,30.53
2023-05-13T23:44:24.944Z,27.97
2023-05-13T23:46:51.817Z,31.67
2023-05-13T23:49:18.694Z,30.83
2023-05-13T23:51:45.558Z,29.00
2023-05-13T23:54:13.744Z,29.43
2023-05-13T23:56:40.731Z,28.27
2023-05-13T23:59:08.662Z,30.67
